Time;durP1;ratioP1;P1;durP2;ratioP2;P2;SDS_P1;SDS_P2;PMS_P1;PMS_P2;Temp;Humidity;BMP_temperature;BMP_pressure;BME280_temperature;BME280_humidity;BME280_pressure;Samples;Min_cycle;Max_cycle;Signal;HPM_P1;HPM_P2
2022/07/12 00:01:06;;;;;;;4.25;1.10;;;15.10;99.90;;;;;;5073428;28;20032;-84
2022/07/12 00:03:32;;;;;;;1.50;0.93;;;15.00;99.90;;;;;;5090711;28;20126;-84
2022/07/12 00:05:58;;;;;;;2.63;0.98;;;15.00;99.90;;;;;;5073318;28;20032;-82
2022/07/12 00:08:23;;;;;;;3.42;1.40;;;15.00;99.90;;;;;;5091475;28;20085;-82
2022/07/12 00:10:49;;;;;;;3.72;1.55;;;15.00;99.90;;;;;;5090834;28;20053;-82
2022/07/12 00:13:15;;;;;;;2.28;0.85;;;15.00;99.90;;;;;;5090877;28;20040;-82
2022/07/12 00:15:41;;;;;;;5.05;2.28;;;14.90;99.90;;;;;;5074177;28;20036;-82
2022/07/12 00:18:07;;;;;;;6.25;2.53;;;15.00;99.90;;;;;;5089576;28;20032;-82
2022/07/12 00:20:33;;;;;;;4.68;2.20;;;15.00;99.90;;;;;;5073118;28;20093;-83
2022/07/12 00:22:58;;;;;;;5.35;2.47;;;15.10;99.90;;;;;;5073453;28;20653;-82
2022/07/12 00:25:25;;;;;;;5.25;2.60;;;15.10;99.90;;;;;;5091418;28;20044;-83
2022/07/12 00:27:51;;;;;;;4.63;2.03;;;15.10;99.90;;;;;;5090683;28;20043;-82
2022/07/12 00:30:17;;;;;;;4.60;1.35;;;15.10;99.90;;;;;;5090117;28;20036;-83
2022/07/12 00:32:43;;;;;;;3.70;1.73;;;15.00;99.90;;;;;;5073318;28;20079;-84
2022/07/12 00:35:09;;;;;;;4.85;1.70;;;15.00;99.90;;;;;;5090948;28;20104;-83
2022/07/12 00:37:34;;;;;;;1.63;1.00;;;15.00;99.90;;;;;;5089614;28;20036;-84
2022/07/12 00:40:06;;;;;;;2.40;1.00;;;14.90;99.90;;;;;;5072266;28;20051;-83
2022/07/12 00:42:32;;;;;;;0.65;0.40;;;14.90;99.90;;;;;;5089495;28;20028;-83
2022/07/12 00:44:58;;;;;;;1.75;0.70;;;14.80;99.90;;;;;;5073435;28;20477;-84
2022/07/12 00:47:42;;;;;;;0.63;0.43;;;14.70;99.90;;;;;;5072566;28;20032;-84
2022/07/12 00:50:11;;;;;;;0.30;0.25;;;14.70;99.90;;;;;;5073827;28;20036;-84
2022/07/12 00:52:37;;;;;;;0.75;0.45;;;14.50;99.90;;;;;;5072383;28;20040;-83
2022/07/12 00:55:07;;;;;;;1.98;0.60;;;14.50;99.90;;;;;;5073959;28;20040;-83
2022/07/12 00:57:34;;;;;;;1.20;0.30;;;14.50;99.90;;;;;;5090361;28;20032;-83
2022/07/12 01:00:00;;;;;;;1.25;0.60;;;14.40;99.90;;;;;;5071249;28;20044;-84
2022/07/12 01:02:26;;;;;;;2.85;0.73;;;14.30;99.90;;;;;;5089946;28;20497;-83
2022/07/12 01:04:53;;;;;;;1.98;0.80;;;14.30;99.90;;;;;;5089483;28;20089;-83
2022/07/12 01:07:19;;;;;;;1.58;0.70;;;14.40;99.90;;;;;;5089736;28;20529;-84
2022/07/12 01:09:45;;;;;;;0.65;0.40;;;14.30;99.90;;;;;;5073601;28;20097;-83
2022/07/12 01:12:11;;;;;;;2.38;0.60;;;14.20;99.90;;;;;;5089091;28;20386;-84
2022/07/12 01:14:39;;;;;;;0.30;0.30;;;14.20;99.90;;;;;;5073060;28;20040;-84
2022/07/12 01:17:06;;;;;;;0.65;0.50;;;14.10;99.90;;;;;;5072457;28;20131;-84
2022/07/12 01:19:34;;;;;;;0.60;0.50;;;14.10;99.90;;;;;;5071948;28;20032;-84
2022/07/12 01:22:02;;;;;;;0.65;0.40;;;14.10;99.90;;;;;;5088905;28;20043;-83
2022/07/12 01:24:27;;;;;;;0.73;0.60;;;14.00;99.90;;;;;;5089235;28;20521;-83
2022/07/12 01:26:53;;;;;;;0.22;0.22;;;14.00;99.90;;;;;;5089069;28;20078;-84
2022/07/12 01:29:20;;;;;;;1.35;0.43;;;13.90;99.90;;;;;;5089621;28;20062;-83
2022/07/12 01:31:46;;;;;;;1.83;0.60;;;13.80;99.90;;;;;;5072484;28;20409;-85
2022/07/12 01:34:11;;;;;;;0.43;0.40;;;13.80;99.90;;;;;;5072579;28;20032;-83
2022/07/12 01:36:38;;;;;;;4.70;0.40;;;13.80;99.90;;;;;;5089061;28;20101;-83
2022/07/12 01:39:04;;;;;;;0.98;0.50;;;13.70;99.90;;;;;;5088382;28;20032;-83
2022/07/12 01:41:31;;;;;;;0.30;0.30;;;13.60;99.90;;;;;;5071405;28;20341;-83
2022/07/12 01:43:57;;;;;;;1.00;0.40;;;13.60;99.90;;;;;;5088892;28;20120;-83
2022/07/12 01:46:23;;;;;;;0.75;0.30;;;13.60;99.90;;;;;;5072509;28;20147;-84
2022/07/12 01:48:48;;;;;;;1.70;0.50;;;13.70;99.90;;;;;;5089258;28;20497;-84
2022/07/12 01:51:14;;;;;;;0.20;0.20;;;13.60;99.90;;;;;;5072663;28;20497;-83
2022/07/12 01:53:40;;;;;;;0.57;0.50;;;13.60;99.90;;;;;;5071367;28;20044;-83
2022/07/12 01:56:06;;;;;;;1.85;0.20;;;13.50;99.90;;;;;;5072219;28;20057;-83
2022/07/12 01:58:31;;;;;;;0.90;0.20;;;13.40;99.90;;;;;;5088847;28;20032;-83
2022/07/12 02:00:58;;;;;;;0.98;0.30;;;13.30;99.90;;;;;;5087649;28;20064;-84
2022/07/12 02:03:23;;;;;;;1.63;0.40;;;13.30;99.90;;;;;;5071707;28;20092;-83
2022/07/12 02:05:49;;;;;;;1.88;0.60;;;13.40;99.90;;;;;;5088375;28;20435;-83
2022/07/12 02:08:15;;;;;;;1.33;0.75;;;13.40;99.90;;;;;;5088955;28;20043;-83
2022/07/12 02:10:43;;;;;;;1.13;0.73;;;13.40;99.90;;;;;;5072368;28;20035;-84
2022/07/12 02:13:08;;;;;;;1.20;0.68;;;13.30;99.90;;;;;;5071179;28;20032;-84
2022/07/12 02:15:34;;;;;;;3.25;0.80;;;13.20;99.90;;;;;;5089160;28;20039;-83
2022/07/12 02:18:00;;;;;;;2.10;0.88;;;13.10;99.90;;;;;;5071300;28;20409;-83
2022/07/12 02:20:25;;;;;;;3.25;1.25;;;13.10;99.90;;;;;;5087804;28;20036;-84
2022/07/12 02:22:51;;;;;;;1.65;0.85;;;13.10;99.90;;;;;;5088494;28;20044;-83
2022/07/12 02:25:17;;;;;;;1.38;0.70;;;13.10;99.90;;;;;;5087944;28;20036;-84
2022/07/12 02:27:42;;;;;;;1.45;0.70;;;13.00;99.90;;;;;;5072076;28;20105;-83
2022/07/12 02:30:09;;;;;;;1.25;0.65;;;13.10;99.90;;;;;;5088391;28;20134;-83
2022/07/12 02:32:35;;;;;;;1.95;0.90;;;13.10;99.90;;;;;;5089049;28;20409;-84
2022/07/12 02:35:01;;;;;;;0.60;0.50;;;13.10;99.90;;;;;;5088451;28;20036;-83
2022/07/12 02:37:26;;;;;;;1.00;0.57;;;13.10;99.90;;;;;;5089047;28;20564;-84
2022/07/12 02:40:52;;;;;;;4.38;0.90;;;13.10;99.90;;;;;;5069134;28;20044;-83
2022/07/12 02:42:39;;;;;;;3.33;1.20;;;13.00;99.90;;;;;;5088322;28;20127;-83
2022/07/12 02:45:05;;;;;;;0.85;0.52;;;13.00;99.90;;;;;;5071449;28;20123;-83
2022/07/12 02:47:30;;;;;;;0.95;0.50;;;13.00;99.90;;;;;;5087836;28;20131;-83
2022/07/12 02:49:57;;;;;;;0.70;0.70;;;12.90;99.90;;;;;;5088879;28;20582;-83
2022/07/12 02:52:23;;;;;;;1.88;0.60;;;12.90;99.90;;;;;;5074201;28;20138;-84
2022/07/12 02:54:48;;;;;;;1.73;0.60;;;12.90;99.90;;;;;;5074705;28;20517;-84
2022/07/12 02:57:14;;;;;;;1.67;0.65;;;12.90;99.90;;;;;;5092615;28;20490;-83
2022/07/12 02:59:40;;;;;;;1.50;0.70;;;12.80;99.90;;;;;;5074174;28;20409;-84
2022/07/12 03:02:05;;;;;;;1.00;0.70;;;12.80;99.90;;;;;;5091683;28;20040;-84
2022/07/12 03:04:31;;;;;;;1.90;0.90;;;12.80;99.90;;;;;;5091155;28;20475;-84
2022/07/12 03:06:56;;;;;;;0.63;0.40;;;12.80;99.90;;;;;;5091531;28;20412;-84
2022/07/12 03:09:22;;;;;;;0.93;0.50;;;12.80;99.90;;;;;;5074885;28;20059;-84
2022/07/12 03:11:47;;;;;;;1.90;0.98;;;12.80;99.90;;;;;;5075917;28;20043;-84
2022/07/12 03:14:13;;;;;;;1.15;0.70;;;12.80;99.90;;;;;;5091243;28;20047;-83
2022/07/12 03:16:39;;;;;;;1.48;0.60;;;12.90;99.90;;;;;;5092355;28;20106;-83
2022/07/12 03:19:05;;;;;;;2.10;0.65;;;12.80;99.90;;;;;;5074911;28;20087;-84
2022/07/12 03:21:30;;;;;;;2.67;0.80;;;12.70;99.90;;;;;;5090206;28;20127;-84
2022/07/12 03:23:56;;;;;;;1.05;0.50;;;12.70;99.90;;;;;;5091403;28;20032;-84
2022/07/12 03:26:21;;;;;;;1.45;0.70;;;12.70;99.90;;;;;;5091696;28;20062;-84
2022/07/12 03:28:47;;;;;;;1.75;0.80;;;12.70;99.90;;;;;;5074493;28;20043;-84
2022/07/12 03:31:13;;;;;;;1.75;1.00;;;12.70;99.90;;;;;;5075122;28;20489;-83
2022/07/12 03:33:39;;;;;;;1.85;0.82;;;12.70;99.90;;;;;;5091137;28;20111;-84
2022/07/12 03:36:06;;;;;;;2.33;1.00;;;12.70;99.90;;;;;;5091807;28;20124;-83
2022/07/12 03:38:32;;;;;;;1.63;0.80;;;12.70;99.90;;;;;;5091956;28;20044;-84
2022/07/12 03:40:58;;;;;;;3.03;1.00;;;12.70;99.90;;;;;;5090229;28;20040;-83
2022/07/12 03:43:23;;;;;;;2.67;1.25;;;12.70;99.90;;;;;;5090743;28;20119;-84
2022/07/12 03:45:49;;;;;;;2.10;1.00;;;12.80;99.90;;;;;;5090784;28;20032;-84
2022/07/12 03:48:14;;;;;;;2.05;0.95;;;12.70;99.90;;;;;;5091171;28;20042;-84
2022/07/12 03:50:40;;;;;;;2.60;1.45;;;12.70;99.90;;;;;;5091049;28;20513;-83
2022/07/12 03:53:06;;;;;;;2.85;1.00;;;12.80;99.90;;;;;;5091084;28;20097;-83
2022/07/12 03:55:31;;;;;;;3.10;1.20;;;12.80;99.90;;;;;;5091656;28;20085;-83
2022/07/12 03:57:57;;;;;;;1.98;0.95;;;12.80;99.90;;;;;;5074318;28;20039;-84
2022/07/12 04:00:22;;;;;;;2.47;1.10;;;12.70;99.90;;;;;;5090942;28;20068;-84
2022/07/12 04:02:48;;;;;;;2.47;1.35;;;12.70;99.90;;;;;;5089854;28;20043;-84
2022/07/12 04:05:13;;;;;;;2.28;1.23;;;12.80;99.90;;;;;;5090141;28;20032;-84
2022/07/12 04:07:40;;;;;;;7.32;1.27;;;12.90;99.90;;;;;;5090617;28;20485;-83
2022/07/12 04:10:06;;;;;;;19.55;1.70;;;12.80;99.90;;;;;;5090629;28;20036;-83
2022/07/12 04:12:32;;;;;;;17.98;1.65;;;12.80;99.90;;;;;;5091509;28;20157;-84
2022/07/12 04:14:58;;;;;;;10.65;1.30;;;12.70;99.90;;;;;;5073976;28;20485;-83
2022/07/12 04:17:24;;;;;;;4.57;1.10;;;12.60;99.90;;;;;;5074339;28;20036;-83
2022/07/12 04:19:49;;;;;;;9.10;1.20;;;12.60;99.90;;;;;;5090634;28;20485;-84
2022/07/12 04:22:15;;;;;;;4.43;1.40;;;12.60;99.90;;;;;;5089403;28;20059;-84
2022/07/12 04:24:40;;;;;;;2.03;0.77;;;12.70;99.90;;;;;;5090520;28;20048;-84
2022/07/12 04:27:06;;;;;;;1.80;0.75;;;12.70;99.90;;;;;;5073682;28;20101;-84
2022/07/12 04:29:32;;;;;;;2.17;0.82;;;12.60;99.90;;;;;;5090910;28;20036;-84
2022/07/12 04:31:57;;;;;;;1.90;0.80;;;12.60;99.90;;;;;;5090466;28;20040;-84
2022/07/12 04:34:23;;;;;;;1.10;0.70;;;12.60;99.90;;;;;;5072779;28;20506;-83
2022/07/12 04:36:48;;;;;;;1.95;0.80;;;12.70;99.90;;;;;;5090605;28;20028;-84
2022/07/12 04:39:14;;;;;;;2.63;1.13;;;12.70;99.90;;;;;;5089979;28;20113;-84
2022/07/12 04:41:40;;;;;;;1.70;0.98;;;12.80;99.90;;;;;;5072870;28;20046;-83
2022/07/12 04:44:06;;;;;;;3.08;1.00;;;12.90;99.90;;;;;;5089253;28;20039;-84
2022/07/12 04:46:32;;;;;;;6.72;2.30;;;12.90;99.90;;;;;;5089861;28;20085;-83
2022/07/12 04:48:58;;;;;;;5.55;2.15;;;13.00;99.90;;;;;;5072753;28;20044;-84
2022/07/12 04:51:23;;;;;;;4.22;1.65;;;13.10;99.90;;;;;;5090066;28;20075;-83
2022/07/12 04:53:49;;;;;;;7.55;2.35;;;13.10;99.90;;;;;;5090375;28;20043;-84
2022/07/12 04:56:15;;;;;;;9.05;4.40;;;13.10;99.90;;;;;;5090127;28;20103;-84
2022/07/12 04:58:40;;;;;;;6.15;2.45;;;13.20;99.90;;;;;;5090209;28;20489;-84
2022/07/12 05:01:07;;;;;;;6.45;2.55;;;13.20;99.90;;;;;;5089526;28;20044;-83
2022/07/12 05:03:32;;;;;;;8.50;5.45;;;13.20;99.90;;;;;;5088582;28;20047;-84
2022/07/12 05:05:58;;;;;;;8.30;3.55;;;13.30;99.90;;;;;;5073151;28;20052;-83
2022/07/12 05:08:24;;;;;;;9.02;5.72;;;13.40;99.90;;;;;;5072989;28;20458;-83
2022/07/12 05:10:49;;;;;;;7.85;4.82;;;13.50;99.90;;;;;;5089207;28;20035;-83
2022/07/12 05:13:15;;;;;;;9.13;3.85;;;13.60;99.90;;;;;;5090460;28;20040;-84
2022/07/12 05:15:40;;;;;;;7.88;5.03;;;13.70;99.90;;;;;;5087829;28;20118;-82
2022/07/12 05:18:06;;;;;;;8.02;4.30;;;13.70;99.90;;;;;;5091883;28;20088;-84
2022/07/12 05:20:32;;;;;;;9.05;4.22;;;13.80;99.90;;;;;;5074660;28;20075;-83
2022/07/12 05:22:57;;;;;;;11.05;5.97;;;13.80;99.90;;;;;;5090071;28;20587;-83
2022/07/12 05:25:23;;;;;;;10.48;6.95;;;13.90;99.90;;;;;;5075836;28;20079;-83
2022/07/12 05:27:49;;;;;;;9.32;5.10;;;14.10;99.90;;;;;;5094806;28;20101;-83
2022/07/12 05:30:14;;;;;;;8.93;6.35;;;14.10;99.90;;;;;;5094120;28;20435;-83
2022/07/12 05:32:40;;;;;;;8.98;5.22;;;14.20;99.90;;;;;;5089717;28;20164;-84
2022/07/12 05:35:06;;;;;;;10.07;7.43;;;14.30;99.90;;;;;;5072515;28;20039;-83
2022/07/12 05:37:31;;;;;;;9.98;5.70;;;14.40;99.90;;;;;;5089864;28;20443;-83
2022/07/12 05:39:57;;;;;;;9.52;5.38;;;14.50;99.90;;;;;;5088912;28;20123;-83
2022/07/12 05:42:22;;;;;;;10.70;8.35;;;14.60;99.90;;;;;;5088557;28;20131;-84
2022/07/12 05:44:48;;;;;;;10.77;6.57;;;14.70;99.90;;;;;;5088172;28;20036;-84
2022/07/12 05:47:14;;;;;;;10.50;8.63;;;14.80;99.90;;;;;;5071872;28;20039;-84
2022/07/12 05:49:39;;;;;;;10.73;7.43;;;14.90;99.90;;;;;;5089052;28;20127;-84
2022/07/12 05:54:50;;;;;;;10.57;7.22;;;15.10;99.90;;;;;;5089333;28;20126;-84
2022/07/12 05:57:16;;;;;;;12.05;10.38;;;15.20;99.90;;;;;;5071866;28;20107;-84
2022/07/12 05:59:42;;;;;;;11.43;7.35;;;15.30;99.90;;;;;;5089552;28;20393;-84
2022/07/12 06:02:08;;;;;;;12.05;10.73;;;15.40;99.90;;;;;;5071035;28;20051;-85
2022/07/12 06:04:34;;;;;;;13.43;11.07;;;15.60;99.90;;;;;;5071520;28;20040;-84
2022/07/12 06:06:59;;;;;;;12.93;8.77;;;15.70;99.90;;;;;;5071848;28;20127;-85
2022/07/12 06:09:25;;;;;;;12.13;10.82;;;15.80;99.90;;;;;;5088167;28;20035;-84
2022/07/12 06:11:50;;;;;;;12.05;10.73;;;15.90;99.90;;;;;;5072221;28;20040;-84
2022/07/12 06:14:16;;;;;;;11.85;10.45;;;16.10;99.90;;;;;;5088087;28;20405;-84
2022/07/12 06:16:41;;;;;;;11.85;10.45;;;16.20;99.90;;;;;;5090002;28;20040;-85
2022/07/12 06:19:07;;;;;;;10.98;9.75;;;16.30;99.90;;;;;;5088660;28;20028;-84
2022/07/12 06:21:33;;;;;;;11.38;9.85;;;16.50;99.90;;;;;;5088601;28;20036;-84
2022/07/12 06:23:59;;;;;;;11.55;9.55;;;16.50;99.90;;;;;;5087739;28;20061;-84
2022/07/12 06:26:24;;;;;;;10.98;9.57;;;16.60;99.90;;;;;;5090736;28;20044;-85
2022/07/12 06:28:50;;;;;;;10.85;8.23;;;16.70;99.90;;;;;;5092030;28;20130;-84
2022/07/12 06:31:16;;;;;;;11.88;10.15;;;16.70;99.90;;;;;;5092985;28;20498;-84
2022/07/12 06:33:41;;;;;;;11.70;8.65;;;16.80;99.90;;;;;;5076541;28;20557;-85
2022/07/12 06:36:07;;;;;;;10.90;9.23;;;16.80;99.90;;;;;;5076022;28;20154;-84
2022/07/12 06:38:33;;;;;;;11.52;9.93;;;16.90;99.90;;;;;;5101706;28;20043;-85
2022/07/12 06:40:58;;;;;;;10.90;9.48;;;17.00;99.90;;;;;;5102898;28;20119;-84
2022/07/12 06:43:24;;;;;;;10.45;9.35;;;17.10;99.90;;;;;;5108251;28;20127;-85
2022/07/12 06:45:49;;;;;;;11.43;8.10;;;17.10;99.90;;;;;;5108434;28;20038;-85
2022/07/12 06:48:15;;;;;;;13.02;9.25;;;17.10;99.90;;;;;;5075623;28;20044;-84
2022/07/12 06:50:40;;;;;;;10.80;8.68;;;17.20;99.90;;;;;;5091423;28;20071;-84
2022/07/12 06:53:06;;;;;;;11.07;8.90;;;17.30;99.90;;;;;;5075377;28;20044;-85
2022/07/12 06:55:31;;;;;;;10.35;8.35;;;17.40;99.90;;;;;;5092593;28;20040;-84
2022/07/12 06:57:57;;;;;;;10.27;8.98;;;17.40;99.90;;;;;;5091810;28;20040;-84
2022/07/12 07:00:23;;;;;;;10.52;9.15;;;17.50;99.90;;;;;;5075486;28;20143;-84
2022/07/12 07:02:48;;;;;;;10.23;8.45;;;17.50;99.90;;;;;;5073707;28;20097;-85
2022/07/12 07:05:15;;;;;;;10.85;8.25;;;17.50;99.90;;;;;;5074309;28;20036;-84
2022/07/12 07:07:41;;;;;;;10.68;9.23;;;17.60;99.90;;;;;;5092017;28;20047;-85
2022/07/12 07:10:07;;;;;;;10.40;9.30;;;17.60;99.90;;;;;;5108085;28;20096;-85
2022/07/12 07:12:32;;;;;;;10.52;9.30;;;17.70;99.90;;;;;;5092435;28;20047;-85
2022/07/12 07:14:58;;;;;;;94.75;14.05;;;17.70;99.90;;;;;;5092875;28;20044;-84
2022/07/12 07:17:23;;;;;;;13.45;9.43;;;17.80;99.90;;;;;;5093218;28;20039;-84
2022/07/12 07:19:49;;;;;;;11.52;9.18;;;17.80;99.90;;;;;;5091614;28;20502;-85
2022/07/12 07:22:15;;;;;;;10.45;8.90;;;17.90;99.90;;;;;;5091112;28;20534;-84
2022/07/12 07:24:40;;;;;;;10.77;9.10;;;18.00;99.90;;;;;;5090798;28;20131;-84
2022/07/12 07:27:07;;;;;;;11.98;8.93;;;18.10;99.90;;;;;;5073794;28;20062;-84
2022/07/12 07:32:17;;;;;;;10.38;9.27;;;18.20;99.90;;;;;;5093017;28;20044;-84
2022/07/12 07:34:42;;;;;;;12.23;9.27;;;18.30;99.90;;;;;;5091425;28;20040;-84
2022/07/12 07:37:09;;;;;;;10.82;9.07;;;18.40;99.90;;;;;;5090674;28;20040;-84
2022/07/12 07:39:34;;;;;;;11.40;8.88;;;18.50;99.90;;;;;;5074012;28;20114;-84
2022/07/12 07:42:01;;;;;;;11.18;8.52;;;18.50;99.90;;;;;;5074577;28;20194;-84
2022/07/12 07:44:27;;;;;;;11.18;9.13;;;18.60;99.90;;;;;;5089463;28;20416;-84
2022/07/12 07:46:52;;;;;;;9.93;8.40;;;18.70;99.90;;;;;;5073422;28;20097;-84
2022/07/12 07:49:18;;;;;;;9.43;8.25;;;18.80;99.90;;;;;;5091269;28;20040;-84
2022/07/12 07:51:43;;;;;;;10.40;8.75;;;18.90;99.90;;;;;;5073325;28;20420;-84
2022/07/12 07:54:09;;;;;;;11.18;8.02;;;19.00;99.90;;;;;;5091708;28;20504;-84
2022/07/12 07:56:34;;;;;;;10.07;8.52;;;19.10;99.90;;;;;;5089264;28;20085;-85
2022/07/12 07:59:00;;;;;;;10.07;7.93;;;19.10;99.90;;;;;;5072363;28;20043;-84
2022/07/12 08:01:52;;;;;;;10.05;8.02;;;19.20;99.90;;;;;;5074587;28;20039;-84
2022/07/12 08:04:19;;;;;;;11.88;8.48;;;19.30;99.90;;;;;;5089463;28;20044;-84
2022/07/12 08:06:46;;;;;;;9.93;8.20;;;19.40;99.90;;;;;;5072737;28;20538;-85
2022/07/12 08:09:12;;;;;;;9.68;8.13;;;19.50;99.90;;;;;;5089617;28;20048;-84
2022/07/12 08:11:38;;;;;;;9.48;7.80;;;19.60;99.90;;;;;;5074031;28;20039;-84
2022/07/12 08:14:05;;;;;;;10.43;8.10;;;19.60;99.90;;;;;;5074539;28;20031;-84
2022/07/12 08:16:31;;;;;;;11.65;8.35;;;19.70;99.90;;;;;;5074336;28;20127;-84
2022/07/12 08:18:57;;;;;;;9.90;7.75;;;19.80;99.90;;;;;;5091234;28;20032;-84
2022/07/12 08:21:23;;;;;;;9.02;7.70;;;19.90;99.90;;;;;;5090378;28;20475;-84
2022/07/12 08:23:49;;;;;;;8.90;7.18;;;20.00;99.90;;;;;;5072715;28;20044;-84
2022/07/12 08:26:15;;;;;;;9.95;7.70;;;20.10;99.90;;;;;;5090072;28;20058;-84
2022/07/12 08:28:41;;;;;;;9.75;7.93;;;20.10;99.90;;;;;;5090031;28;20501;-85
2022/07/12 08:31:07;;;;;;;9.73;7.38;;;20.20;99.90;;;;;;5090019;28;20090;-84
2022/07/12 08:33:33;;;;;;;10.80;7.40;;;20.30;99.90;;;;;;5085123;28;20554;-85
2022/07/12 08:35:58;;;;;;;10.00;7.68;;;20.40;99.90;;;;;;5088719;28;20040;-85
2022/07/12 08:38:24;;;;;;;12.93;7.70;;;20.50;99.90;;;;;;5090176;28;20413;-85
2022/07/12 08:40:49;;;;;;;9.40;7.70;;;20.60;99.90;;;;;;5089704;28;20072;-85
2022/07/12 08:43:15;;;;;;;9.85;7.53;;;20.70;99.90;;;;;;5084875;28;20048;-85
2022/07/12 08:45:41;;;;;;;9.20;7.35;;;20.80;99.90;;;;;;5088069;28;20391;-85
2022/07/12 08:48:08;;;;;;;9.80;7.78;;;20.90;99.90;;;;;;5106386;28;20036;-86
2022/07/12 08:50:34;;;;;;;8.65;7.30;;;21.00;99.90;;;;;;5088538;28;20044;-85
2022/07/12 08:53:01;;;;;;;7.88;5.95;;;21.10;99.90;;;;;;5071561;28;20040;-84
2022/07/12 08:55:34;;;;;;;10.02;6.18;;;21.10;99.90;;;;;;5089973;28;20123;-84
2022/07/12 08:58:03;;;;;;;8.52;6.47;;;21.10;99.90;;;;;;5072890;28;20040;-84
2022/07/12 09:00:30;;;;;;;8.20;6.32;;;21.10;99.90;;;;;;5073172;28;20040;-84
2022/07/12 09:02:57;;;;;;;8.43;5.85;;;21.10;99.90;;;;;;5071968;28;20452;-85
2022/07/12 09:05:25;;;;;;;8.20;5.32;;;21.20;99.90;;;;;;5072270;28;20040;-84
2022/07/12 09:07:51;;;;;;;8.13;4.50;;;21.30;99.90;;;;;;5088676;28;20558;-85
2022/07/12 09:10:18;;;;;;;8.57;4.93;;;21.40;99.90;;;;;;5072305;28;20764;-85
2022/07/12 09:12:44;;;;;;;7.13;4.65;;;21.40;99.90;;;;;;5072300;28;20039;-85
2022/07/12 09:15:10;;;;;;;8.45;4.68;;;21.50;99.90;;;;;;5073240;28;20459;-84
2022/07/12 09:17:36;;;;;;;7.07;3.97;;;21.50;99.90;;;;;;5072822;28;20036;-84
2022/07/12 09:20:03;;;;;;;6.00;3.35;;;21.60;99.90;;;;;;5070971;28;20413;-85
2022/07/12 09:22:29;;;;;;;6.32;3.53;;;21.70;99.90;;;;;;5087557;28;20122;-85
2022/07/12 09:24:54;;;;;;;5.78;3.30;;;21.70;99.90;;;;;;5086866;28;20139;-84
2022/07/12 09:27:26;;;;;;;6.65;3.97;;;21.70;99.90;;;;;;5086266;28;20046;-85
2022/07/12 09:29:52;;;;;;;6.80;4.10;;;21.80;99.90;;;;;;5087377;28;20044;-85
2022/07/12 09:37:48;;;;;;;6.82;3.63;;;22.00;99.90;;;;;;5089328;28;20040;-85
2022/07/12 09:40:14;;;;;;;13.65;3.70;;;22.10;99.90;;;;;;5071549;28;20048;-85
2022/07/12 09:42:41;;;;;;;5.60;3.15;;;22.20;99.90;;;;;;5072646;28;20046;-85
2022/07/12 09:45:10;;;;;;;6.45;2.80;;;22.20;99.90;;;;;;5088367;28;20044;-86
2022/07/12 09:47:36;;;;;;;9.43;3.20;;;22.20;99.90;;;;;;5089087;28;20067;-85
2022/07/12 09:50:03;;;;;;;6.88;3.38;;;22.40;99.90;;;;;;5088842;28;20035;-85
2022/07/12 09:52:32;;;;;;;4.75;2.50;;;22.50;99.90;;;;;;5071538;28;20044;-85
2022/07/12 09:55:00;;;;;;;8.43;2.85;;;22.60;99.90;;;;;;5089571;28;20495;-85
2022/07/12 09:57:30;;;;;;;6.72;3.28;;;22.70;99.90;;;;;;5072659;28;20048;-85
2022/07/12 09:59:57;;;;;;;5.95;3.13;;;22.70;99.90;;;;;;5088374;28;20086;-85
2022/07/12 10:02:24;;;;;;;7.57;3.35;;;22.70;99.90;;;;;;5091054;28;20075;-85
2022/07/12 10:04:51;;;;;;;7.72;3.00;;;22.80;99.90;;;;;;5070844;28;20400;-85
2022/07/12 10:07:16;;;;;;;7.88;2.97;;;22.80;99.90;;;;;;5071568;28;20040;-85
2022/07/12 10:09:48;;;;;;;5.85;2.85;;;22.90;99.90;;;;;;5071514;28;20123;-85
2022/07/12 10:12:16;;;;;;;6.15;2.40;;;23.00;99.90;;;;;;5088440;28;20047;-85
2022/07/12 10:14:44;;;;;;;3.95;1.55;;;23.00;99.90;;;;;;5071365;28;20524;-85
2022/07/12 10:17:11;;;;;;;6.03;2.80;;;23.10;99.90;;;;;;5088561;28;20036;-85
2022/07/12 10:19:37;;;;;;;7.55;2.92;;;23.10;99.90;;;;;;5072024;28;20047;-85
2022/07/12 10:22:06;;;;;;;7.40;3.40;;;23.20;99.90;;;;;;5078656;28;20036;-85
2022/07/12 10:24:47;;;;;;;5.25;2.85;;;23.30;99.90;;;;;;5062330;28;20040;-85
2022/07/12 10:27:15;;;;;;;6.45;3.40;;;23.40;99.90;;;;;;5078059;28;20048;-85
2022/07/12 10:29:45;;;;;;;7.53;4.00;;;23.50;99.90;;;;;;5063798;28;20050;-85
2022/07/12 10:32:25;;;;;;;7.13;3.90;;;23.60;99.90;;;;;;5061752;28;20033;-85
2022/07/12 10:35:05;;;;;;;6.28;3.50;;;23.70;99.90;;;;;;5081689;28;20405;-85
2022/07/12 10:37:32;;;;;;;6.03;2.53;;;23.70;99.90;;;;;;5079806;28;20039;-85
2022/07/12 10:40:27;;;;;;;5.75;2.10;;;23.70;99.90;;;;;;5080709;28;20047;-85
2022/07/12 10:43:17;;;;;;;4.63;2.17;;;23.80;99.90;;;;;;5070937;28;20048;-85
2022/07/12 10:45:44;;;;;;;4.93;2.20;;;23.90;99.90;;;;;;5096590;28;20114;-85
2022/07/12 10:48:21;;;;;;;5.18;2.60;;;24.00;99.90;;;;;;5070728;28;20066;-85
2022/07/12 10:50:55;;;;;;;6.65;2.60;;;24.10;99.90;;;;;;5088678;28;20047;-85
2022/07/12 10:53:30;;;;;;;5.30;2.55;;;24.30;99.90;;;;;;5086464;28;20042;-85
2022/07/12 10:56:17;;;;;;;5.15;2.50;;;24.40;99.90;;;;;;5072237;28;20162;-85
2022/07/12 10:58:54;;;;;;;5.32;2.67;;;24.50;99.90;;;;;;5071852;28;20043;-85
2022/07/12 11:01:25;;;;;;;4.50;2.30;;;24.50;99.90;;;;;;5080668;28;20131;-85
2022/07/12 11:03:56;;;;;;;5.30;2.45;;;24.50;99.90;;;;;;5088300;28;20036;-85
2022/07/12 11:06:23;;;;;;;4.28;1.90;;;24.50;99.90;;;;;;5070055;28;20101;-85
2022/07/12 11:08:57;;;;;;;2.42;1.00;;;24.70;99.90;;;;;;5087188;28;20669;-85
2022/07/12 11:11:27;;;;;;;5.28;2.00;;;24.70;99.90;;;;;;5066005;28;20666;-85
2022/07/12 11:13:54;;;;;;;5.65;2.50;;;24.80;99.90;;;;;;5092611;28;20044;-85
2022/07/12 11:16:20;;;;;;;5.10;2.67;;;24.80;99.90;;;;;;5081392;28;20040;-85
2022/07/12 11:18:46;;;;;;;4.97;2.40;;;24.90;99.90;;;;;;5097323;28;20452;-86
2022/07/12 11:21:13;;;;;;;6.30;2.50;;;25.00;99.90;;;;;;5073883;28;20516;-85
2022/07/12 11:23:40;;;;;;;5.95;2.20;;;25.10;99.90;;;;;;5073097;28;20036;-85
2022/07/12 11:26:07;;;;;;;5.85;2.40;;;25.10;99.90;;;;;;5073834;28;20552;-85
2022/07/12 11:28:33;;;;;;;5.82;2.20;;;25.10;99.90;;;;;;5091390;28;20115;-85
2022/07/12 11:31:18;;;;;;;6.10;2.30;;;25.20;99.90;;;;;;5082051;28;20131;-85
2022/07/12 11:33:46;;;;;;;6.50;2.10;;;25.30;99.90;;;;;;5059849;28;20393;-86
2022/07/12 11:36:13;;;;;;;5.35;2.00;;;25.30;99.90;;;;;;5084072;28;20028;-85
2022/07/12 11:38:40;;;;;;;4.35;1.90;;;25.30;99.90;;;;;;5091694;28;20036;-86
2022/07/12 11:41:07;;;;;;;4.90;2.17;;;25.30;99.90;;;;;;5074372;28;20040;-85
2022/07/12 11:43:35;;;;;;;5.40;2.50;;;25.20;99.90;;;;;;5073337;28;20035;-86
2022/07/12 11:46:01;;;;;;;5.55;2.50;;;25.30;99.90;;;;;;5089762;28;20032;-85
2022/07/12 11:48:27;;;;;;;5.15;2.42;;;25.40;99.90;;;;;;5089750;28;20059;-85
2022/07/12 11:50:54;;;;;;;5.53;2.50;;;25.50;99.90;;;;;;5090667;28;20505;-85
2022/07/12 11:53:23;;;;;;;5.75;2.55;;;25.50;99.90;;;;;;5090081;28;20047;-85
2022/07/12 11:55:55;;;;;;;4.82;2.00;;;25.60;99.90;;;;;;5074796;28;20032;-85
2022/07/12 11:58:22;;;;;;;4.38;1.70;;;25.70;99.90;;;;;;5074656;28;20122;-86
2022/07/12 12:00:49;;;;;;;24.13;2.90;;;25.80;99.90;;;;;;5073822;28;20047;-85
2022/07/12 12:03:16;;;;;;;4.60;1.60;;;25.90;99.90;;;;;;5091624;28;20810;-86
2022/07/12 12:05:43;;;;;;;5.15;1.60;;;26.00;99.80;;;;;;5072954;28;20044;-86
2022/07/12 12:08:10;;;;;;;3.20;1.42;;;26.00;99.80;;;;;;5091326;28;20641;-85
2022/07/12 12:10:36;;;;;;;4.75;1.80;;;26.00;99.90;;;;;;5091051;28;20384;-86
2022/07/12 12:13:02;;;;;;;5.40;2.08;;;25.90;99.20;;;;;;5089779;28;20071;-85
2022/07/12 12:15:33;;;;;;;3.38;1.50;;;26.00;99.60;;;;;;5089499;28;20046;-86
2022/07/12 12:18:04;;;;;;;4.35;1.85;;;26.10;99.40;;;;;;5073333;28;20067;-85
2022/07/12 12:20:38;;;;;;;6.13;2.05;;;26.10;99.30;;;;;;5073827;28;20085;-86
2022/07/12 12:23:16;;;;;;;5.13;1.63;;;26.20;99.30;;;;;;5090291;28;20404;-86
2022/07/12 12:25:42;;;;;;;2.70;1.20;;;26.30;99.90;;;;;;5073010;28;20501;-86
2022/07/12 12:28:07;;;;;;;2.72;1.05;;;26.40;99.60;;;;;;5090224;28;20036;-86
2022/07/12 12:30:35;;;;;;;5.13;1.25;;;26.50;99.90;;;;;;5089377;28;20036;-86
2022/07/12 12:33:01;;;;;;;2.75;1.40;;;26.60;99.70;;;;;;5088940;28;20040;-86
2022/07/12 12:35:38;;;;;;;2.63;1.30;;;26.70;98.50;;;;;;5091170;28;20042;-86
2022/07/12 12:38:11;;;;;;;2.75;1.30;;;26.80;98.50;;;;;;5091894;28;20477;-86
2022/07/12 12:40:37;;;;;;;3.78;1.52;;;26.70;98.30;;;;;;5091365;28;20086;-86
2022/07/12 12:43:14;;;;;;;3.85;1.60;;;26.80;98.40;;;;;;5091972;28;20040;-86
2022/07/12 12:45:54;;;;;;;3.55;1.50;;;26.80;96.50;;;;;;5074521;28;20082;-86
2022/07/12 12:48:22;;;;;;;3.22;1.35;;;26.90;95.60;;;;;;5092126;28;20047;-86
2022/07/12 12:50:50;;;;;;;2.80;1.38;;;27.00;94.40;;;;;;5097464;28;20342;-86
2022/07/12 12:53:21;;;;;;;4.65;1.23;;;27.20;95.10;;;;;;5109538;28;20024;-86
2022/07/12 12:55:51;;;;;;;2.93;0.87;;;27.20;91.80;;;;;;5088242;28;20024;-86